Time;durP1;ratioP1;P1;durP2;ratioP2;P2;SDS_P1;SDS_P2;PMS_P1;PMS_P2;Temp;Humidity;BMP_temperature;BMP_pressure;BME280_temperature;BME280_humidity;BME280_pressure;Samples;Min_cycle;Max_cycle;Signal;HPM_P1;HPM_P2
2022/01/06 00:00:13;;;;;;;7.40;4.35;;;9.60;99.90;;;;;;4885771;29;20042;-52
2022/01/06 00:02:40;;;;;;;5.38;3.95;;;9.50;99.90;;;;;;4884292;29;20064;-49
2022/01/06 00:05:06;;;;;;;5.28;4.13;;;9.50;99.90;;;;;;4918177;29;20120;-49
2022/01/06 00:07:32;;;;;;;8.23;4.47;;;9.40;99.90;;;;;;4904353;29;20056;-45
2022/01/06 00:09:59;;;;;;;6.80;4.22;;;9.40;99.90;;;;;;4919942;29;20036;-50
2022/01/06 00:12:34;;;;;;;6.97;4.53;;;9.50;99.90;;;;;;4920448;29;20488;-50
2022/01/06 00:23:38;;;;;;;6.20;4.32;;;9.50;99.90;;;;;;4804996;29;20139;-53
2022/01/06 00:26:05;;;;;;;5.78;4.03;;;9.50;99.90;;;;;;4844354;29;20136;-51
2022/01/06 00:28:32;;;;;;;6.53;4.85;;;9.60;99.90;;;;;;4843544;29;20045;-46
2022/01/06 00:30:59;;;;;;;5.72;4.07;;;9.50;99.90;;;;;;4845069;29;20078;-47
2022/01/06 00:33:29;;;;;;;5.97;4.07;;;9.20;99.90;;;;;;4842846;29;20137;-50
2022/01/06 00:35:55;;;;;;;7.53;4.53;;;9.40;99.90;;;;;;4843707;29;20034;-48
2022/01/06 00:38:24;;;;;;;5.85;4.55;;;9.40;99.90;;;;;;4827956;29;20137;-48
2022/01/06 00:40:50;;;;;;;9.20;4.88;;;9.40;99.90;;;;;;4843368;29;20745;-44
2022/01/06 00:43:15;;;;;;;7.00;4.95;;;9.40;99.90;;;;;;4843056;29;20132;-50
2022/01/06 00:45:41;;;;;;;7.85;4.72;;;9.30;99.90;;;;;;4805843;29;20056;-48
2022/01/06 00:48:09;;;;;;;6.50;4.38;;;9.20;99.90;;;;;;4812762;29;20049;-50
2022/01/06 00:50:40;;;;;;;5.32;3.58;;;9.20;99.90;;;;;;4842649;29;20046;-46
2022/01/06 00:53:06;;;;;;;5.47;3.72;;;9.20;99.90;;;;;;4844692;29;20037;-46
2022/01/06 00:55:36;;;;;;;6.93;4.18;;;9.10;99.90;;;;;;4842549;29;20042;-47
2022/01/06 00:58:02;;;;;;;5.47;3.83;;;9.00;99.90;;;;;;4849871;29;20037;-49
2022/01/06 01:00:37;;;;;;;4.05;3.22;;;8.90;99.90;;;;;;4865898;29;20049;-50
2022/01/06 01:03:09;;;;;;;5.93;3.75;;;8.80;99.90;;;;;;4868124;29;20084;-51
2022/01/06 01:05:35;;;;;;;5.75;3.95;;;8.70;99.90;;;;;;4861308;29;20045;-46
2022/01/06 01:08:01;;;;;;;4.68;3.42;;;8.80;99.90;;;;;;4863099;29;20452;-47
2022/01/06 01:10:28;;;;;;;4.35;2.95;;;8.70;99.90;;;;;;4881825;29;20045;-48
2022/01/06 01:12:53;;;;;;;4.80;3.17;;;8.50;99.90;;;;;;4866721;29;20442;-48
2022/01/06 01:15:20;;;;;;;5.18;3.95;;;8.40;99.90;;;;;;4871436;29;20072;-46
2022/01/06 01:17:50;;;;;;;5.82;3.63;;;8.40;99.90;;;;;;4866059;29;20055;-53
2022/01/06 01:20:18;;;;;;;5.18;4.00;;;8.30;99.90;;;;;;4869886;29;20040;-49
2022/01/06 01:22:45;;;;;;;5.30;3.40;;;8.40;99.90;;;;;;4886217;29;20057;-50
2022/01/06 01:25:11;;;;;;;5.82;4.07;;;8.20;99.90;;;;;;4861857;29;20037;-47
2022/01/06 01:27:43;;;;;;;5.68;3.85;;;8.20;99.90;;;;;;4865248;29;20467;-50
2022/01/06 01:30:13;;;;;;;6.57;4.90;;;8.10;99.90;;;;;;4869929;29;20057;-53
2022/01/06 01:32:45;;;;;;;5.63;3.80;;;8.10;99.90;;;;;;4840805;29;20036;-53
2022/01/06 01:35:11;;;;;;;5.95;3.78;;;8.10;99.90;;;;;;4887600;29;20130;-50
2022/01/06 01:37:38;;;;;;;8.02;4.57;;;8.10;99.90;;;;;;4919271;29;20032;-48
2022/01/06 01:40:09;;;;;;;6.90;4.90;;;7.90;99.90;;;;;;4919197;29;20118;-52
2022/01/06 01:42:35;;;;;;;9.57;5.60;;;7.80;99.90;;;;;;4919034;29;20032;-51
2022/01/06 01:45:02;;;;;;;5.32;3.35;;;7.70;99.90;;;;;;4920227;29;20075;-44
2022/01/06 01:47:38;;;;;;;7.63;4.93;;;7.60;99.90;;;;;;4877830;29;20117;-50
2022/01/06 01:50:15;;;;;;;8.07;4.93;;;7.50;99.90;;;;;;4877163;29;20049;-50
2022/01/06 01:52:45;;;;;;;8.02;4.75;;;7.60;99.90;;;;;;4869093;29;20041;-47
2022/01/06 01:55:15;;;;;;;8.57;5.32;;;7.60;99.90;;;;;;4877249;29;20474;-47
2022/01/06 01:57:41;;;;;;;11.02;7.97;;;7.70;99.90;;;;;;4877855;29;20048;-45
2022/01/06 02:00:10;;;;;;;10.40;6.75;;;7.80;99.90;;;;;;4852138;29;20037;-53
2022/01/06 02:02:36;;;;;;;8.98;6.07;;;7.90;99.90;;;;;;4850952;29;20072;-51
2022/01/06 02:05:02;;;;;;;9.82;6.72;;;7.80;99.90;;;;;;4876993;29;20064;-50
2022/01/06 02:07:28;;;;;;;8.73;6.18;;;7.70;99.90;;;;;;4876502;29;20078;-45
2022/01/06 02:09:54;;;;;;;9.52;6.57;;;7.60;99.90;;;;;;4864038;29;20488;-47
2022/01/06 02:12:32;;;;;;;6.20;4.93;;;7.60;99.90;;;;;;4877400;29;20041;-49
2022/01/06 02:14:59;;;;;;;5.95;4.13;;;7.50;99.90;;;;;;4846253;29;20104;-45
2022/01/06 02:17:24;;;;;;;7.80;5.07;;;7.50;99.90;;;;;;4879660;29;20043;-46
2022/01/06 02:19:54;;;;;;;6.75;3.80;;;7.40;99.90;;;;;;4919768;29;20036;-49
2022/01/06 02:22:20;;;;;;;5.28;3.97;;;7.20;99.90;;;;;;4916419;29;20397;-50
2022/01/06 02:24:46;;;;;;;5.28;3.15;;;7.20;99.90;;;;;;4919501;29;20469;-47
2022/01/06 02:27:12;;;;;;;6.93;5.10;;;7.10;99.90;;;;;;4884853;29;20043;-45
2022/01/06 02:29:38;;;;;;;6.60;5.07;;;7.20;99.90;;;;;;4855888;29;20063;-51
2022/01/06 02:32:10;;;;;;;6.55;4.45;;;7.10;99.90;;;;;;4917436;29;20032;-48
2022/01/06 02:34:36;;;;;;;6.13;4.60;;;7.00;99.90;;;;;;4917682;29;20087;-49
2022/01/06 02:37:03;;;;;;;5.03;3.75;;;7.00;99.90;;;;;;4917585;29;20259;-47
2022/01/06 02:39:29;;;;;;;7.20;4.55;;;7.10;99.90;;;;;;4884192;29;20062;-47
2022/01/06 02:41:55;;;;;;;6.80;4.15;;;7.00;99.90;;;;;;4917202;29;20024;-45
2022/01/06 02:44:24;;;;;;;4.75;3.13;;;7.00;99.90;;;;;;4917280;29;20028;-48
2022/01/06 02:46:50;;;;;;;4.25;3.33;;;7.10;99.90;;;;;;4917332;29;20044;-45
2022/01/06 02:49:16;;;;;;;4.43;2.95;;;7.00;99.90;;;;;;4917365;29;20036;-44
2022/01/06 02:51:42;;;;;;;4.95;2.65;;;7.10;99.90;;;;;;4868288;29;20036;-51
2022/01/06 02:54:08;;;;;;;4.78;2.97;;;7.10;99.90;;;;;;4917131;29;20036;-46
2022/01/06 02:56:34;;;;;;;4.10;3.03;;;6.90;99.90;;;;;;4917230;29;20029;-51
2022/01/06 02:59:00;;;;;;;5.80;3.10;;;6.90;99.90;;;;;;4917411;29;20032;-47
2022/01/06 03:01:26;;;;;;;4.93;3.33;;;6.90;99.90;;;;;;4899466;29;20044;-50
2022/01/06 03:03:51;;;;;;;5.40;3.45;;;7.00;99.90;;;;;;4916860;29;20119;-47
2022/01/06 03:06:17;;;;;;;4.22;2.83;;;6.90;99.90;;;;;;4899381;29;20032;-53
2022/01/06 03:08:43;;;;;;;5.07;2.80;;;7.00;99.90;;;;;;4899169;29;20500;-50
2022/01/06 03:11:10;;;;;;;2.78;1.77;;;6.90;99.90;;;;;;4916945;29;20036;-50
2022/01/06 03:13:35;;;;;;;5.55;2.63;;;6.80;99.90;;;;;;4917039;29;20111;-49
2022/01/06 03:16:02;;;;;;;3.97;2.72;;;6.70;99.90;;;;;;4899081;29;20172;-47
2022/01/06 03:18:28;;;;;;;3.95;3.00;;;6.80;99.90;;;;;;4899523;29;20051;-47
2022/01/06 03:20:54;;;;;;;5.32;3.10;;;6.90;99.90;;;;;;4917145;29;20059;-45
2022/01/06 03:23:20;;;;;;;6.40;3.35;;;7.10;99.90;;;;;;4899977;29;20500;-48
2022/01/06 03:25:46;;;;;;;6.60;2.97;;;7.10;99.90;;;;;;4916865;29;20039;-47
2022/01/06 03:28:12;;;;;;;4.13;2.97;;;7.20;99.90;;;;;;4916924;29;20056;-52
2022/01/06 03:30:38;;;;;;;4.10;2.40;;;7.10;99.90;;;;;;4916968;29;20036;-47
2022/01/06 03:33:04;;;;;;;4.65;3.00;;;7.10;99.90;;;;;;4916675;29;20115;-48
2022/01/06 03:35:30;;;;;;;4.53;2.83;;;7.10;99.90;;;;;;4916431;29;20028;-53
2022/01/06 03:37:56;;;;;;;4.85;3.03;;;7.10;99.90;;;;;;4882966;29;20040;-46
2022/01/06 03:40:22;;;;;;;3.80;2.90;;;7.10;99.90;;;;;;4916472;29;20118;-46
2022/01/06 03:42:48;;;;;;;3.88;2.75;;;7.00;99.90;;;;;;4867556;29;20052;-45
2022/01/06 03:45:17;;;;;;;3.88;2.35;;;6.90;99.90;;;;;;4916580;29;20033;-48
2022/01/06 03:47:43;;;;;;;3.38;2.33;;;6.90;99.90;;;;;;4920147;29;20048;-46
2022/01/06 03:50:11;;;;;;;3.78;2.47;;;6.80;99.90;;;;;;4920610;29;20063;-50
2022/01/06 03:52:37;;;;;;;7.88;2.50;;;6.80;99.90;;;;;;4886666;29;20123;-48
2022/01/06 03:55:06;;;;;;;5.85;2.78;;;6.90;99.90;;;;;;4919912;29;20032;-51
2022/01/06 03:57:32;;;;;;;3.75;2.25;;;6.80;99.90;;;;;;4920212;29;20032;-52
2022/01/06 03:59:58;;;;;;;4.65;3.00;;;6.60;99.90;;;;;;4886443;29;20043;-49
2022/01/06 04:02:24;;;;;;;3.63;2.00;;;6.50;99.90;;;;;;4919787;29;20047;-52
2022/01/06 04:04:49;;;;;;;3.53;2.03;;;6.20;99.90;;;;;;4870991;29;20119;-52
2022/01/06 04:07:15;;;;;;;3.05;1.70;;;6.00;99.90;;;;;;4920082;29;20029;-52
2022/01/06 04:09:41;;;;;;;4.05;1.88;;;5.70;99.90;;;;;;4855136;29;20060;-48
2022/01/06 04:12:10;;;;;;;1.70;1.17;;;5.70;99.90;;;;;;4886194;29;20084;-48
2022/01/06 04:14:36;;;;;;;2.20;1.25;;;5.30;99.90;;;;;;4919588;29;20028;-51
2022/01/06 04:17:02;;;;;;;3.10;1.45;;;5.20;99.90;;;;;;4919700;29;20039;-50
2022/01/06 04:19:27;;;;;;;2.90;1.27;;;5.20;99.90;;;;;;4855285;29;20377;-46
2022/01/06 04:21:54;;;;;;;1.98;1.23;;;5.00;99.90;;;;;;4919346;29;20035;-45
2022/01/06 04:24:20;;;;;;;1.52;1.08;;;4.90;99.90;;;;;;4919531;29;20032;-52
2022/01/06 04:26:45;;;;;;;5.45;2.42;;;5.00;99.90;;;;;;4919677;29;20103;-51
2022/01/06 04:29:11;;;;;;;4.43;1.92;;;4.90;99.90;;;;;;4919198;29;20056;-50
2022/01/06 04:31:38;;;;;;;3.85;1.73;;;4.80;99.90;;;;;;4919381;29;20031;-50
2022/01/06 04:34:04;;;;;;;2.53;1.13;;;4.80;99.90;;;;;;4919356;29;20031;-46
2022/01/06 04:36:29;;;;;;;4.47;2.70;;;4.80;99.90;;;;;;4885743;29;20040;-49
2022/01/06 04:38:55;;;;;;;3.95;2.13;;;4.90;99.90;;;;;;4919463;29;20079;-42
2022/01/06 04:41:21;;;;;;;7.00;2.85;;;4.90;99.90;;;;;;4901472;29;20115;-46
2022/01/06 04:43:47;;;;;;;6.78;2.80;;;5.00;99.90;;;;;;4919490;29;20091;-51
2022/01/06 04:46:12;;;;;;;8.50;3.17;;;5.00;99.90;;;;;;4901256;29;20052;-46
2022/01/06 04:48:38;;;;;;;3.05;2.20;;;5.30;99.90;;;;;;4885460;29;20036;-50
2022/01/06 04:51:04;;;;;;;3.72;2.60;;;5.40;99.90;;;;;;4885643;29;20036;-52
2022/01/06 04:53:30;;;;;;;3.92;2.35;;;5.40;99.90;;;;;;4869921;29;20115;-52
2022/01/06 04:55:58;;;;;;;4.40;2.30;;;5.70;99.90;;;;;;4901269;29;20577;-49
2022/01/06 04:58:23;;;;;;;5.60;2.88;;;5.70;99.90;;;;;;4917653;29;20091;-49
2022/01/06 05:00:49;;;;;;;3.95;2.50;;;5.70;99.90;;;;;;4918378;29;20028;-49
2022/01/06 05:03:15;;;;;;;4.28;2.58;;;5.50;99.90;;;;;;4917135;29;20044;-48
2022/01/06 05:05:41;;;;;;;4.18;2.63;;;5.50;99.90;;;;;;4912671;29;20040;-53
2022/01/06 05:08:07;;;;;;;3.33;2.47;;;5.50;99.90;;;;;;4915425;29;20051;-52
2022/01/06 05:10:32;;;;;;;3.92;2.55;;;5.50;99.90;;;;;;4915344;29;20568;-52
2022/01/06 05:12:58;;;;;;;4.55;2.42;;;5.40;99.90;;;;;;4869507;29;20058;-51
2022/01/06 05:15:24;;;;;;;5.28;2.58;;;5.30;99.90;;;;;;4918336;29;20025;-52
2022/01/06 05:17:50;;;;;;;4.57;2.75;;;5.40;99.90;;;;;;4885256;29;20100;-51
2022/01/06 05:20:15;;;;;;;4.78;2.90;;;5.40;99.90;;;;;;4918493;29;20032;-51
2022/01/06 05:22:44;;;;;;;4.25;2.75;;;5.60;99.90;;;;;;4918071;29;20070;-52
2022/01/06 05:25:12;;;;;;;7.05;2.60;;;5.60;99.90;;;;;;4885178;29;20362;-49
2022/01/06 05:27:38;;;;;;;4.70;3.33;;;5.40;99.90;;;;;;4882425;29;20461;-52
2022/01/06 05:30:05;;;;;;;5.30;3.05;;;5.50;99.90;;;;;;4918363;29;20071;-46
2022/01/06 05:32:31;;;;;;;3.63;2.75;;;5.50;99.90;;;;;;4860181;29;20075;-46
2022/01/06 05:34:57;;;;;;;4.38;2.70;;;5.40;99.90;;;;;;4882003;29;20048;-50
2022/01/06 05:37:23;;;;;;;4.90;2.65;;;5.50;99.90;;;;;;4918211;29;20083;-51
2022/01/06 05:39:48;;;;;;;5.90;3.40;;;5.40;99.90;;;;;;4900578;29;20389;-44
2022/01/06 05:42:14;;;;;;;3.42;2.55;;;5.30;99.90;;;;;;4918107;29;20036;-49
2022/01/06 05:44:41;;;;;;;5.30;2.55;;;5.10;99.90;;;;;;4883517;29;20058;-51
2022/01/06 05:47:07;;;;;;;5.43;3.00;;;5.10;99.90;;;;;;4917834;29;20393;-48
2022/01/06 05:49:33;;;;;;;5.50;2.78;;;5.20;99.90;;;;;;4912230;29;20044;-48
2022/01/06 05:52:00;;;;;;;4.00;1.65;;;5.30;99.90;;;;;;4918378;29;20024;-46
2022/01/06 05:54:25;;;;;;;2.92;1.95;;;5.30;99.90;;;;;;4918009;29;20032;-46
2022/01/06 05:56:51;;;;;;;4.40;2.28;;;5.00;99.90;;;;;;4918214;29;20357;-49
2022/01/06 05:59:17;;;;;;;8.02;2.63;;;5.10;99.90;;;;;;4884655;29;20040;-45
2022/01/06 06:01:43;;;;;;;3.53;1.75;;;5.20;99.90;;;;;;4915893;29;20036;-46
2022/01/06 06:04:09;;;;;;;4.32;2.65;;;5.30;99.90;;;;;;4917077;29;20032;-52
2022/01/06 06:06:35;;;;;;;4.72;3.03;;;5.40;99.90;;;;;;4915103;29;20043;-49
2022/01/06 06:09:00;;;;;;;5.47;3.25;;;5.50;99.90;;;;;;4869224;29;20057;-48
2022/01/06 06:11:26;;;;;;;5.82;3.03;;;5.40;99.90;;;;;;4883942;29;20049;-52
2022/01/06 06:13:52;;;;;;;7.25;4.15;;;5.50;99.90;;;;;;4916381;29;20028;-48
2022/01/06 06:16:18;;;;;;;5.78;3.50;;;5.50;99.90;;;;;;4879620;29;20124;-46
2022/01/06 06:18:43;;;;;;;6.68;4.13;;;5.60;99.90;;;;;;4888502;29;20123;-47
2022/01/06 06:21:10;;;;;;;6.10;4.07;;;;;;;;;;4915365;29;20087;-46
2022/01/06 06:23:35;;;;;;;10.35;5.93;;;5.80;99.90;;;;;;4911863;29;20376;-46
2022/01/06 06:26:01;;;;;;;19.63;11.43;;;5.90;99.90;;;;;;4897009;29;20127;-46
2022/01/06 06:28:28;;;;;;;15.20;8.40;;;6.10;99.90;;;;;;4899558;29;20040;-47
2022/01/06 06:30:53;;;;;;;6.60;4.70;;;6.10;99.90;;;;;;4917851;29;20032;-46
2022/01/06 06:33:19;;;;;;;8.70;3.78;;;6.10;99.90;;;;;;4917412;29;20424;-49
2022/01/06 06:35:45;;;;;;;14.05;6.82;;;6.10;99.90;;;;;;4917294;29;20032;-46
2022/01/06 06:38:11;;;;;;;14.55;9.90;;;6.10;99.90;;;;;;4884949;29;20046;-49
2022/01/06 06:40:36;;;;;;;12.70;7.78;;;6.20;99.90;;;;;;4912927;29;20396;-46
2022/01/06 06:43:02;;;;;;;19.60;9.63;;;6.10;99.90;;;;;;4916180;29;20043;-46
2022/01/06 06:45:28;;;;;;;15.60;8.98;;;6.10;99.90;;;;;;4886929;29;20048;-46
2022/01/06 06:47:54;;;;;;;14.77;8.82;;;6.00;99.90;;;;;;4916836;29;20035;-48
2022/01/06 06:50:21;;;;;;;16.27;8.77;;;6.10;99.90;;;;;;4916647;29;20029;-49
2022/01/06 06:52:47;;;;;;;18.13;11.35;;;6.00;99.90;;;;;;4916709;29;20409;-46
2022/01/06 06:55:14;;;;;;;19.27;11.60;;;6.10;99.90;;;;;;4917093;29;20040;-48
2022/01/06 06:57:41;;;;;;;28.88;15.77;;;6.10;99.90;;;;;;4883842;29;20084;-46
2022/01/06 07:00:09;;;;;;;11.18;6.78;;;6.00;99.90;;;;;;4916606;29;20469;-48
2022/01/06 07:02:35;;;;;;;13.55;8.23;;;5.80;99.90;;;;;;4898070;29;20517;-48
2022/01/06 07:05:02;;;;;;;16.13;7.68;;;5.90;99.90;;;;;;4911296;29;20535;-46
2022/01/06 07:07:27;;;;;;;9.10;6.20;;;5.90;99.90;;;;;;4896024;29;20036;-48
2022/01/06 07:09:53;;;;;;;10.57;6.10;;;5.80;99.90;;;;;;4898068;29;20040;-46
2022/01/06 07:12:19;;;;;;;9.57;6.65;;;5.80;99.90;;;;;;4875159;29;20096;-48
2022/01/06 07:14:45;;;;;;;14.85;8.95;;;5.80;99.90;;;;;;4915444;29;20028;-48
2022/01/06 07:17:11;;;;;;;15.07;9.00;;;5.70;99.90;;;;;;4883735;29;20496;-45
2022/01/06 07:19:37;;;;;;;17.23;8.77;;;5.60;99.90;;;;;;4917103;29;20373;-47
2022/01/06 07:22:04;;;;;;;18.23;9.30;;;5.70;99.90;;;;;;4902164;29;20040;-47
2022/01/06 07:24:29;;;;;;;13.35;7.43;;;5.80;99.90;;;;;;4920766;29;20032;-47
2022/01/06 07:26:55;;;;;;;14.32;9.10;;;5.70;99.90;;;;;;4920485;29;20038;-46
2022/01/06 07:29:21;;;;;;;10.23;7.30;;;5.80;99.90;;;;;;4920821;29;20031;-47
2022/01/06 07:31:46;;;;;;;8.13;5.13;;;5.80;99.90;;;;;;4886987;29;20099;-48
2022/01/06 07:34:12;;;;;;;11.85;7.70;;;5.70;99.90;;;;;;4920398;29;20032;-47
2022/01/06 07:36:38;;;;;;;8.52;6.30;;;5.70;99.90;;;;;;4920564;29;20032;-48
2022/01/06 07:39:04;;;;;;;9.15;6.63;;;5.60;99.90;;;;;;4902305;29;20040;-46
2022/01/06 07:41:30;;;;;;;8.52;5.65;;;5.70;99.90;;;;;;4920443;29;20031;-46
2022/01/06 07:43:56;;;;;;;9.75;6.63;;;5.80;99.90;;;;;;4902098;29;20048;-46
2022/01/06 07:46:21;;;;;;;12.57;8.85;;;5.70;99.90;;;;;;4886876;29;20044;-46
2022/01/06 07:48:57;;;;;;;13.02;8.57;;;5.80;99.90;;;;;;4902303;29;20044;-44
2022/01/06 07:51:27;;;;;;;10.07;6.85;;;5.70;99.90;;;;;;4919581;29;20040;-47
2022/01/06 07:53:54;;;;;;;11.65;7.05;;;5.80;99.90;;;;;;4912913;29;20118;-48
2022/01/06 07:56:20;;;;;;;10.48;6.68;;;5.80;99.90;;;;;;4918382;29;20028;-47
2022/01/06 07:58:47;;;;;;;8.15;5.25;;;5.80;99.90;;;;;;4918638;29;20040;-47
2022/01/06 08:01:14;;;;;;;11.85;7.45;;;5.70;99.90;;;;;;4919763;29;20016;-46
2022/01/06 08:03:41;;;;;;;11.70;9.60;;;5.70;99.90;;;;;;4919417;29;20548;-49
2022/01/06 08:06:07;;;;;;;13.75;10.18;;;5.70;99.90;;;;;;4919019;29;20476;-46
2022/01/06 08:08:33;;;;;;;11.75;7.10;;;5.80;99.90;;;;;;4899414;29;20130;-45
2022/01/06 08:10:59;;;;;;;11.95;8.77;;;5.80;99.90;;;;;;4900223;29;20036;-48
2022/01/06 08:13:24;;;;;;;10.27;7.55;;;5.80;99.90;;;;;;4899712;29;20115;-45
2022/01/06 08:15:51;;;;;;;14.18;9.57;;;5.80;99.90;;;;;;4899896;29;20029;-45
2022/01/06 08:18:16;;;;;;;18.73;10.93;;;5.90;99.90;;;;;;4898986;29;20037;-48
2022/01/06 08:20:42;;;;;;;15.32;9.63;;;5.90;99.90;;;;;;4899087;29;20131;-44
2022/01/06 08:23:08;;;;;;;14.60;9.13;;;6.00;99.90;;;;;;4899060;29;20040;-48
2022/01/06 08:25:35;;;;;;;16.45;9.80;;;5.90;99.90;;;;;;4881775;29;20056;-47
2022/01/06 08:28:02;;;;;;;15.80;10.43;;;5.90;99.90;;;;;;4898317;29;20107;-48
2022/01/06 08:30:29;;;;;;;11.80;8.95;;;6.00;99.90;;;;;;4913079;29;20044;-45
2022/01/06 08:32:55;;;;;;;13.82;9.35;;;6.00;99.90;;;;;;4897518;29;20075;-48
2022/01/06 08:35:22;;;;;;;11.90;7.53;;;6.00;99.90;;;;;;4882047;29;20048;-48
2022/01/06 08:37:48;;;;;;;8.02;5.55;;;6.00;99.90;;;;;;4897807;29;20092;-49
2022/01/06 08:40:14;;;;;;;6.20;4.95;;;6.00;99.90;;;;;;4897837;29;20469;-48
2022/01/06 08:42:39;;;;;;;9.32;7.05;;;6.00;99.90;;;;;;4897986;29;20088;-46
2022/01/06 08:45:06;;;;;;;10.00;6.55;;;5.90;99.90;;;;;;4895482;29;20029;-52
2022/01/06 08:47:32;;;;;;;7.63;4.40;;;5.90;99.90;;;;;;4897447;29;20040;-46
2022/01/06 08:49:58;;;;;;;23.05;15.02;;;5.70;99.90;;;;;;4880887;29;20079;-48
2022/01/06 08:52:24;;;;;;;13.75;11.27;;;5.80;99.90;;;;;;4893985;29;20060;-50
2022/01/06 08:54:50;;;;;;;9.82;7.13;;;5.90;99.90;;;;;;4896394;29;20092;-48
2022/01/06 08:57:16;;;;;;;12.35;7.18;;;5.90;99.90;;;;;;4895292;29;20064;-50
2022/01/06 08:59:42;;;;;;;10.25;8.27;;;5.80;99.90;;;;;;4895659;29;20107;-50
2022/01/06 09:02:08;;;;;;;11.50;8.25;;;5.90;99.90;;;;;;4893545;29;20136;-49
2022/01/06 09:04:34;;;;;;;7.93;5.57;;;5.90;99.90;;;;;;4896222;29;20454;-50
2022/01/06 09:07:02;;;;;;;10.95;8.32;;;5.70;99.90;;;;;;4900048;29;20107;-49
2022/01/06 09:09:28;;;;;;;9.30;7.13;;;5.80;99.90;;;;;;4901130;29;20497;-49
2022/01/06 09:11:54;;;;;;;11.98;7.57;;;5.80;99.90;;;;;;4918680;29;20032;-48
2022/01/06 09:14:22;;;;;;;8.68;6.15;;;5.90;99.90;;;;;;4919042;29;20035;-48
2022/01/06 09:16:49;;;;;;;11.40;6.78;;;5.90;99.90;;;;;;4916899;29;20048;-48
2022/01/06 09:19:15;;;;;;;12.85;8.13;;;5.90;99.90;;;;;;4915659;29;20035;-49
2022/01/06 09:21:40;;;;;;;7.45;4.93;;;5.90;99.90;;;;;;4918559;29;20032;-49
2022/01/06 09:24:07;;;;;;;8.77;6.22;;;5.60;99.90;;;;;;4918761;29;20467;-48
2022/01/06 09:26:34;;;;;;;10.63;6.72;;;5.60;99.90;;;;;;4918322;29;20119;-48
2022/01/06 09:29:03;;;;;;;9.50;7.50;;;5.70;99.90;;;;;;4918572;29;20028;-49
2022/01/06 09:31:28;;;;;;;12.18;7.50;;;5.80;99.90;;;;;;4918378;29;20036;-49
2022/01/06 09:33:54;;;;;;;11.02;6.72;;;5.70;99.90;;;;;;4918395;29;20024;-50
2022/01/06 09:36:20;;;;;;;14.82;8.50;;;5.60;99.90;;;;;;4918302;29;20049;-49
2022/01/06 09:38:46;;;;;;;8.63;5.47;;;5.60;99.90;;;;;;4900338;29;20047;-50
2022/01/06 09:41:12;;;;;;;10.27;6.95;;;5.50;99.90;;;;;;4918103;29;20114;-49
2022/01/06 09:43:39;;;;;;;6.10;3.58;;;5.80;99.90;;;;;;4915490;29;20048;-49
2022/01/06 09:46:08;;;;;;;9.10;6.20;;;5.70;99.90;;;;;;4918139;29;20056;-49
2022/01/06 09:48:37;;;;;;;8.65;5.82;;;5.80;99.90;;;;;;4917874;29;20083;-50
2022/01/06 09:51:04;;;;;;;10.88;6.80;;;5.70;99.90;;;;;;4917992;29;20469;-49
2022/01/06 09:53:30;;;;;;;9.75;6.30;;;5.70;99.90;;;;;;4917969;29;20032;-49
2022/01/06 09:55:56;;;;;;;8.07;4.40;;;5.70;99.90;;;;;;4917897;29;20035;-49
2022/01/06 09:58:28;;;;;;;8.85;6.85;;;5.80;99.90;;;;;;4918049;29;20036;-49
2022/01/06 10:00:56;;;;;;;10.57;8.10;;;5.80;99.90;;;;;;4917688;29;20036;-50
2022/01/06 10:03:37;;;;;;;14.80;7.97;;;5.80;99.90;;;;;;4917668;29;20396;-50
2022/01/06 10:06:27;;;;;;;9.10;5.00;;;6.00;99.90;;;;;;4917981;29;20054;-49
2022/01/06 10:09:04;;;;;;;14.43;6.50;;;5.70;99.90;;;;;;4917396;29;20048;-49
2022/01/06 10:11:32;;;;;;;9.02;6.15;;;5.80;99.90;;;;;;4917073;29;20040;-50
2022/01/06 10:14:10;;;;;;;6.70;4.45;;;5.90;99.90;;;;;;4918958;29;20092;-50
2022/01/06 10:16:40;;;;;;;15.35;8.75;;;5.60;99.90;;;;;;4917693;29;20043;-50
2022/01/06 10:19:10;;;;;;;13.57;7.25;;;5.90;99.90;;;;;;4916196;29;20393;-49
2022/01/06 10:21:49;;;;;;;7.90;5.15;;;5.90;99.90;;;;;;4917398;29;20476;-50
2022/01/06 10:24:17;;;;;;;9.27;5.28;;;5.70;99.90;;;;;;4921950;29;20032;-49
2022/01/06 10:26:54;;;;;;;9.40;5.90;;;5.60;99.90;;;;;;4928508;29;20075;-49
2022/01/06 10:29:21;;;;;;;8.32;6.18;;;5.70;99.90;;;;;;4885771;29;20073;-51
2022/01/06 10:31:47;;;;;;;15.23;7.90;;;5.60;99.90;;;;;;4886452;29;20512;-51
2022/01/06 10:34:13;;;;;;;16.25;9.70;;;5.70;99.90;;;;;;4868542;29;20042;-49
2022/01/06 10:36:40;;;;;;;12.65;6.78;;;5.80;99.90;;;;;;4880943;29;20077;-51
2022/01/06 10:39:08;;;;;;;12.50;7.68;;;5.60;99.90;;;;;;4880420;29;20055;-50
2022/01/06 10:41:45;;;;;;;10.35;6.03;;;5.70;99.90;;;;;;4875279;29;20077;-52
2022/01/06 10:44:12;;;;;;;15.85;9.50;;;5.70;99.90;;;;;;4881573;29;20093;-49
2022/01/06 10:46:39;;;;;;;8.65;5.30;;;5.70;99.90;;;;;;4839338;29;20087;-51
2022/01/06 10:49:08;;;;;;;10.88;7.55;;;5.60;99.90;;;;;;4887001;29;20584;-50
2022/01/06 10:51:38;;;;;;;11.70;7.35;;;5.60;99.90;;;;;;4887174;29;20489;-51
2022/01/06 10:54:10;;;;;;;11.85;7.22;;;5.50;99.90;;;;;;4887952;29;20029;-49
2022/01/06 10:56:35;;;;;;;;;;;5.50;99.90;;;;;;4891666;29;20054;-49
2022/01/06 10:59:01;;;;;;;22.67;11.82;;;5.70;99.90;;;;;;4890392;29;20356;-50
2022/01/06 11:01:32;;;;;;;8.25;6.47;;;5.70;99.90;;;;;;4927425;29;20028;-51
2022/01/06 11:03:58;;;;;;;6.18;4.22;;;5.50;99.90;;;;;;4929815;29;20040;-50
2022/01/06 11:06:25;;;;;;;22.30;14.43;;;5.30;99.90;;;;;;4932533;29;20346;-50
2022/01/06 11:08:52;;;;;;;21.73;13.95;;;5.40;99.90;;;;;;4901916;29;20094;-50
2022/01/06 11:11:43;;;;;;;23.88;15.32;;;5.50;99.90;;;;;;4899755;29;20127;-50
2022/01/06 11:14:12;;;;;;;19.17;14.52;;;5.60;99.90;;;;;;4912473;29;20036;-51
2022/01/06 11:16:38;;;;;;;32.05;23.05;;;5.60;99.90;;;;;;4907231;29;20505;-48
2022/01/06 11:19:04;;;;;;;19.10;13.30;;;5.60;99.90;;;;;;4910255;29;20060;-51
2022/01/06 11:21:37;;;;;;;23.15;14.40;;;5.50;99.90;;;;;;4909953;29;20034;-50
2022/01/06 11:24:08;;;;;;;13.35;9.80;;;5.30;99.90;;;;;;4904564;29;20393;-52
2022/01/06 11:30:12;;;;;;;15.00;10.60;;;5.30;99.90;;;;;;4902451;29;20382;-51
2022/01/06 11:36:00;;;;;;;16.58;12.93;;;5.30;99.90;;;;;;4911073;29;20450;-50
2022/01/06 11:41:48;;;;;;;20.63;13.70;;;5.50;99.90;;;;;;4905440;29;20151;-49
2022/01/06 11:47:38;;;;;;;7.57;6.30;;;5.50;99.90;;;;;;4904947;29;20039;-49
2022/01/06 11:53:33;;;;;;;12.37;10.00;;;5.30;99.90;;;;;;4920463;29;20069;-50
2022/01/06 11:59:04;;;;;;;10.70;8.85;;;5.20;99.90;;;;;;4920054;29;19914;-49
2022/01/06 12:04:59;;;;;;;17.55;14.65;;;5.50;99.90;;;;;;4920183;29;20039;-50
2022/01/06 12:10:59;;;;;;;17.15;13.38;;;5.70;99.90;;;;;;4926017;29;20059;-49
2022/01/06 12:13:55;;;;;;;20.58;14.30;;;6.00;99.90;;;;;;4904221;29;20466;-50
2022/01/06 12:20:06;;;;;;;20.40;16.08;;;6.20;99.90;;;;;;4901200;29;20128;-51
2022/01/06 12:26:13;;;;;;;19.10;15.02;;;6.30;99.90;;;;;;4900848;29;20073;-49
2022/01/06 12:32:23;;;;;;;30.58;19.73;;;6.60;99.90;;;;;;4900996;29;20043;-50
2022/01/06 12:38:32;;;;;;;13.18;10.32;;;6.60;99.90;;;;;;4900890;29;20092;-49
2022/01/06 12:44:39;;;;;;;30.00;21.60;;;6.40;99.90;;;;;;4900601;29;20051;-51
2022/01/06 12:50:49;;;;;;;29.33;22.00;;;6.60;99.90;;;;;;4900728;29;20067;-49
2022/01/06 12:57:00;;;;;;;20.40;16.50;;;6.80;99.90;;;;;;4900753;29;20123;-49
2022/01/06 13:03:07;;;;;;;22.02;17.58;;;6.90;99.90;;;;;;4900024;29;20532;-51
2022/01/06 13:09:21;;;;;;;26.25;15.27;;;6.80;99.90;;;;;;4900759;29;20573;-49
2022/01/06 13:15:35;;;;;;;29.83;21.38;;;6.50;99.90;;;;;;4899963;29;20036;-49
2022/01/06 13:21:58;;;;;;;22.80;18.67;;;6.50;99.90;;;;;;4918341;29;20046;-51
2022/01/06 13:24:28;;;;;;;24.63;18.53;;;6.60;99.90;;;;;;4916286;29;20040;-50
2022/01/06 13:26:55;;;;;;;27.38;20.05;;;6.70;99.90;;;;;;4915903;29;20040;-50
2022/01/06 13:29:35;;;;;;;23.02;17.73;;;6.70;99.90;;;;;;4918138;29;20502;-50
2022/01/06 13:32:08;;;;;;;20.08;15.65;;;6.70;99.90;;;;;;4913466;29;20102;-49
2022/01/06 13:34:35;;;;;;;34.20;21.33;;;6.80;99.90;;;;;;4918582;29;20039;-50
2022/01/06 13:37:07;;;;;;;20.50;15.60;;;6.80;99.90;;;;;;4918287;29;20032;-49
2022/01/06 13:39:35;;;;;;;18.55;13.05;;;6.90;99.90;;;;;;4899392;29;20052;-51
2022/01/06 13:42:00;;;;;;;16.85;13.32;;;6.70;99.90;;;;;;4917622;29;20068;-51
2022/01/06 13:44:26;;;;;;;15.25;11.98;;;6.90;99.90;;;;;;4884702;29;20072;-51
2022/01/06 13:47:11;;;;;;;15.93;10.85;;;6.70;99.90;;;;;;4916796;29;20040;-50
2022/01/06 13:52:25;;;;;;;14.07;10.18;;;6.60;99.90;;;;;;4918234;29;20503;-49
2022/01/06 13:54:51;;;;;;;13.23;9.98;;;6.50;99.90;;;;;;4884880;29;20040;-51
2022/01/06 13:57:17;;;;;;;13.15;10.20;;;6.30;99.90;;;;;;4918047;29;20047;-52
2022/01/06 13:59:44;;;;;;;12.27;10.02;;;6.40;99.90;;;;;;4899407;29;20099;-52
2022/01/06 14:02:12;;;;;;;12.52;10.32;;;6.50;99.90;;;;;;4917991;29;20504;-51
2022/01/06 14:04:39;;;;;;;13.20;10.70;;;6.70;99.90;;;;;;4917913;29;20476;-51
2022/01/06 14:07:05;;;;;;;14.70;10.93;;;6.70;99.90;;;;;;4900087;29;20051;-51
2022/01/06 14:09:31;;;;;;;13.95;9.80;;;6.60;99.90;;;;;;4917244;29;20040;-52
2022/01/06 14:11:57;;;;;;;12.90;8.52;;;6.50;99.90;;;;;;4917827;29;20039;-52